Time;durP1;ratioP1;P1;durP2;ratioP2;P2;SDS_P1;SDS_P2;PMS_P1;PMS_P2;Temp;Humidity;BMP_temperature;BMP_pressure;BME280_temperature;BME280_humidity;BME280_pressure;Samples;Min_cycle;Max_cycle;Signal;HPM_P1;HPM_P2
2021/09/11 00:00:32;;;;;;;9.57;7.65;;;;;;;19.13;76.94;99590.22;5049811;28;20413;-76
2021/09/11 00:02:58;;;;;;;11.27;7.55;;;;;;;19.14;77.16;99583.88;5048483;28;20064;-76
2021/09/11 00:05:23;;;;;;;11.88;8.88;;;;;;;19.15;76.70;99590.06;5052843;28;20028;-75
2021/09/11 00:07:49;;;;;;;9.75;7.93;;;;;;;19.17;76.75;99591.63;5053069;28;20040;-77
2021/09/11 00:10:15;;;;;;;13.25;10.02;;;;;;;19.17;76.49;99590.78;5054169;28;20049;-76
2021/09/11 00:12:41;;;;;;;10.88;9.77;;;;;;;19.17;76.25;99578.25;5052112;28;20043;-77
2021/09/11 00:15:10;;;;;;;11.07;9.93;;;;;;;19.16;76.02;99579.25;5052887;28;20444;-77
2021/09/11 00:17:35;;;;;;;11.98;10.82;;;;;;;19.14;75.97;99575.84;5055026;28;20061;-76
2021/09/11 00:20:00;;;;;;;12.35;9.93;;;;;;;19.11;75.95;99569.94;5054906;28;20064;-76
2021/09/11 00:22:26;;;;;;;13.55;9.27;;;;;;;19.11;76.28;99580.66;5055524;28;20370;-77
2021/09/11 00:24:51;;;;;;;12.38;10.35;;;;;;;19.07;76.29;99578.25;5057058;28;20029;-77
2021/09/11 00:27:16;;;;;;;12.75;9.70;;;;;;;19.07;76.37;99582.72;5057565;28;20040;-76
2021/09/11 00:29:42;;;;;;;12.38;9.68;;;;;;;19.06;76.20;99589.06;5054324;28;20170;-76
2021/09/11 00:32:08;;;;;;;11.55;9.30;;;;;;;19.07;76.17;99585.41;5051565;28;20041;-76
2021/09/11 00:34:34;;;;;;;10.60;8.95;;;;;;;19.07;76.15;99590.75;5052690;28;20087;-76
2021/09/11 00:36:59;;;;;;;11.82;9.20;;;;;;;19.08;76.04;99595.13;5052407;28;20452;-77
2021/09/11 00:39:24;;;;;;;11.13;9.10;;;;;;;19.05;75.67;99595.38;5050990;28;20049;-76
2021/09/11 00:41:51;;;;;;;12.73;8.55;;;;;;;19.03;75.38;99595.53;5052142;28;20551;-77
2021/09/11 00:44:17;;;;;;;11.70;7.35;;;;;;;19.03;75.09;99592.84;5053253;28;20029;-77
2021/09/11 00:46:42;;;;;;;9.85;8.35;;;;;;;19.00;74.77;99594.94;5049662;28;20098;-75
2021/09/11 00:49:07;;;;;;;7.88;6.97;;;;;;;18.98;74.20;99595.06;5049855;28;20025;-76
2021/09/11 00:51:33;;;;;;;10.45;7.10;;;;;;;18.91;73.00;99596.59;5050280;28;20036;-75
2021/09/11 00:53:59;;;;;;;7.95;6.20;;;;;;;18.88;73.06;99592.34;5051953;28;20040;-75
2021/09/11 00:56:25;;;;;;;8.63;6.70;;;;;;;18.86;73.03;99596.97;5049973;28;20036;-76
2021/09/11 00:58:51;;;;;;;14.10;7.07;;;;;;;18.85;72.86;99600.66;5049924;28;20041;-77
2021/09/11 01:01:17;;;;;;;8.15;5.93;;;;;;;18.85;72.86;99602.44;5026234;28;20108;-77
2021/09/11 01:03:42;;;;;;;8.52;5.57;;;;;;;18.84;72.31;99604.28;5051463;28;20033;-76
2021/09/11 01:06:07;;;;;;;8.25;5.78;;;;;;;18.84;71.97;99609.63;5049792;28;20049;-77
2021/09/11 01:08:34;;;;;;;8.68;4.70;;;;;;;18.84;71.75;99600.78;5049686;28;20044;-76
2021/09/11 01:10:59;;;;;;;5.65;4.32;;;;;;;18.83;71.48;99599.09;5050254;28;20037;-76
2021/09/11 01:13:25;;;;;;;5.03;4.07;;;;;;;18.83;71.40;99605.28;5048790;28;20033;-77
2021/09/11 01:15:57;;;;;;;5.32;4.05;;;;;;;18.84;71.19;99598.94;5049313;28;20037;-77
2021/09/11 01:18:22;;;;;;;6.97;4.65;;;;;;;18.82;70.78;99602.72;5050113;28;20033;-76
2021/09/11 01:20:48;;;;;;;8.68;4.85;;;;;;;18.79;70.97;99600.31;5050076;28;20045;-75
2021/09/11 01:23:13;;;;;;;4.80;3.45;;;;;;;18.80;70.85;99596.66;5051413;28;20167;-76
2021/09/11 01:25:38;;;;;;;4.32;3.45;;;;;;;18.80;70.51;99607.34;5051698;28;20047;-77
2021/09/11 01:28:04;;;;;;;5.03;3.83;;;;;;;18.81;70.49;99595.69;5051369;28;20110;-78
2021/09/11 01:30:30;;;;;;;5.97;3.50;;;;;;;18.80;70.60;99594.88;5050905;28;20031;-75
2021/09/11 01:32:56;;;;;;;5.05;3.60;;;;;;;18.81;70.58;99593.88;5049101;28;20044;-76
2021/09/11 01:35:21;;;;;;;7.25;3.58;;;;;;;18.80;70.68;99594.00;5051779;28;20487;-78
2021/09/11 01:37:47;;;;;;;4.57;3.50;;;;;;;18.80;70.71;99596.66;5050499;28;20491;-76
2021/09/11 01:40:12;;;;;;;4.50;3.53;;;;;;;18.79;70.65;99600.31;5050677;28;20060;-76
2021/09/11 01:42:38;;;;;;;4.55;3.70;;;;;;;18.78;70.74;99598.63;5048581;28;20466;-76
2021/09/11 01:45:08;;;;;;;4.72;3.78;;;;;;;18.76;70.80;99595.25;5049453;28;20040;-76
2021/09/11 01:47:34;;;;;;;5.30;3.67;;;;;;;18.74;70.89;99587.34;5051380;28;20429;-76
2021/09/11 01:49:59;;;;;;;6.40;3.55;;;;;;;18.74;70.72;99586.50;5049508;28;20112;-76
2021/09/11 01:52:25;;;;;;;5.95;3.40;;;;;;;18.71;70.94;99594.78;5032561;28;20041;-77
2021/09/11 01:54:50;;;;;;;5.95;3.25;;;;;;;18.66;71.05;99592.50;5051618;28;20066;-77
2021/09/11 01:57:16;;;;;;;5.30;3.53;;;;;;;18.63;71.19;99603.41;5051710;28;20048;-76
2021/09/11 01:59:42;;;;;;;4.63;3.70;;;;;;;18.61;70.97;99603.56;5055799;28;20053;-75
2021/09/11 02:02:09;;;;;;;6.28;3.70;;;;;;;18.59;71.29;99604.69;5053447;28;20025;-76
2021/09/11 02:04:35;;;;;;;5.20;3.60;;;;;;;18.55;71.55;99600.56;5051585;28;20100;-77
2021/09/11 02:07:04;;;;;;;6.32;3.78;;;;;;;18.54;71.48;99610.41;5049611;28;20037;-76
2021/09/11 02:09:30;;;;;;;4.90;3.38;;;;;;;18.54;71.51;99612.25;5051276;28;20033;-76
2021/09/11 02:11:57;;;;;;;5.32;3.60;;;;;;;18.53;71.64;99613.19;5050153;28;20565;-76
2021/09/11 02:14:22;;;;;;;6.35;3.88;;;;;;;18.52;71.71;99609.69;5051330;28;20141;-75
2021/09/11 02:16:48;;;;;;;6.13;4.38;;;;;;;18.50;72.02;99605.47;5051988;28;20060;-76
2021/09/11 02:19:14;;;;;;;5.65;4.20;;;;;;;18.47;71.91;99611.91;5052061;28;20072;-76
2021/09/11 02:21:40;;;;;;;6.50;3.78;;;;;;;18.46;72.08;99610.22;5054049;28;20040;-76
2021/09/11 02:24:07;;;;;;;7.50;4.75;;;;;;;18.44;72.32;99609.50;5055849;28;20075;-75
2021/09/11 02:26:32;;;;;;;5.00;3.85;;;;;;;18.41;72.31;99621.28;5059675;28;20037;-75
2021/09/11 02:28:58;;;;;;;7.80;4.55;;;;;;;18.37;72.36;99622.50;5062495;28;20090;-74
2021/09/11 02:31:23;;;;;;;5.97;4.07;;;;;;;18.35;72.80;99626.28;5053923;28;20060;-75
2021/09/11 02:33:49;;;;;;;6.22;4.30;;;;;;;18.34;73.04;99620.09;5054921;28;20033;-75
2021/09/11 02:36:16;;;;;;;6.68;4.97;;;;;;;18.33;72.94;99626.41;5053609;28;20025;-75
2021/09/11 02:38:42;;;;;;;6.47;5.10;;;;;;;18.33;73.20;99625.56;5054390;28;20116;-74
2021/09/11 02:41:08;;;;;;;5.78;4.05;;;;;;;18.36;73.02;99627.97;5056294;28;20043;-75
2021/09/11 02:43:33;;;;;;;7.50;4.35;;;;;;;18.34;73.11;99625.44;5056001;28;20032;-75
2021/09/11 02:45:59;;;;;;;10.27;5.93;;;;;;;18.32;73.06;99621.22;5053526;28;20449;-76
2021/09/11 02:48:24;;;;;;;7.57;5.80;;;;;;;18.29;73.39;99622.31;5050840;28;20064;-75
2021/09/11 02:50:50;;;;;;;9.73;5.65;;;;;;;18.29;73.49;99618.81;5051328;28;20102;-76
2021/09/11 02:53:15;;;;;;;7.32;5.38;;;;;;;18.27;73.67;99618.94;5049905;28;20033;-76
2021/09/11 02:55:41;;;;;;;9.48;6.10;;;;;;;18.26;73.47;99624.38;5050542;28;20037;-76
2021/09/11 02:58:06;;;;;;;10.23;6.45;;;;;;;18.25;73.95;99620.88;5050536;28;20049;-76
2021/09/11 03:00:32;;;;;;;9.32;7.18;;;;;;;18.24;73.70;99627.19;5050149;28;20063;-76
2021/09/11 03:02:57;;;;;;;8.73;6.45;;;;;;;18.23;73.11;99633.50;5047938;28;20494;-77
2021/09/11 03:05:22;;;;;;;12.13;6.80;;;;;;;18.20;72.97;99631.09;5048594;28;20044;-76
2021/09/11 03:07:48;;;;;;;6.85;5.97;;;;;;;18.17;72.86;99623.34;5047868;28;20560;-76
2021/09/11 03:10:13;;;;;;;7.13;5.30;;;;;;;18.16;72.98;99618.97;5049385;28;20045;-76
2021/09/11 03:12:38;;;;;;;8.30;5.63;;;;;;;18.17;73.02;99610.00;5049956;28;20041;-76
2021/09/11 03:15:05;;;;;;;6.40;5.45;;;;;;;18.17;72.65;99618.00;5049749;28;20049;-75
2021/09/11 03:17:30;;;;;;;5.00;4.28;;;;;;;18.17;72.66;99618.84;5054431;28;20522;-76
2021/09/11 03:19:56;;;;;;;10.57;6.55;;;;;;;18.17;72.52;99626.00;5054039;28;20037;-75
2021/09/11 03:22:21;;;;;;;8.45;4.80;;;;;;;18.17;72.71;99623.34;5048358;28;20424;-77
2021/09/11 03:24:47;;;;;;;7.53;4.70;;;;;;;18.16;72.66;99629.63;5052016;28;20410;-77
2021/09/11 03:27:12;;;;;;;10.50;5.35;;;;;;;18.14;72.33;99635.13;5048852;28;20041;-76
2021/09/11 03:29:37;;;;;;;4.95;3.88;;;;;;;18.12;71.89;99642.41;5047681;28;20036;-76
2021/09/11 03:32:03;;;;;;;10.52;4.90;;;;;;;18.12;72.27;99639.72;5048269;28;20056;-76
2021/09/11 03:34:29;;;;;;;5.63;4.28;;;;;;;18.12;71.77;99636.22;5048518;28;20036;-77
2021/09/11 03:36:54;;;;;;;6.28;4.05;;;;;;;18.12;71.92;99633.56;5047163;28;20052;-76
2021/09/11 03:39:19;;;;;;;6.78;4.97;;;;;;;18.13;72.41;99630.75;5049303;28;20037;-76
2021/09/11 03:41:45;;;;;;;6.93;4.95;;;;;;;18.13;72.17;99632.56;5046672;28;20040;-76
2021/09/11 03:44:10;;;;;;;9.55;6.20;;;;;;;18.09;71.99;99634.66;5048506;28;20029;-77
2021/09/11 03:46:35;;;;;;;7.78;5.22;;;;;;;18.07;72.08;99639.28;5048598;28;20036;-76
2021/09/11 03:49:01;;;;;;;6.47;4.80;;;;;;;18.07;71.87;99633.94;5048733;28;20132;-77
2021/09/11 03:51:29;;;;;;;7.50;4.65;;;;;;;18.06;72.09;99639.38;5047766;28;20056;-76
2021/09/11 03:53:55;;;;;;;6.35;4.25;;;;;;;18.05;72.17;99640.38;5048559;28;20094;-76
2021/09/11 03:56:20;;;;;;;7.90;5.45;;;;;;;18.05;72.00;99640.38;5047466;28;20036;-76
2021/09/11 03:58:45;;;;;;;7.28;5.10;;;;;;;18.06;72.04;99637.56;5048725;28;20127;-76
2021/09/11 04:01:11;;;;;;;8.20;4.78;;;;;;;18.07;72.15;99641.94;5046457;28;20041;-76
2021/09/11 04:03:36;;;;;;;9.30;6.03;;;;;;;18.06;72.03;99647.38;5047261;28;20498;-77
2021/09/11 04:06:01;;;;;;;6.80;4.38;;;;;;;18.01;71.44;99647.75;5048458;28;20060;-77
2021/09/11 04:08:30;;;;;;;7.05;4.07;;;;;;;17.99;71.41;99644.38;5048501;28;20040;-77
2021/09/11 04:10:59;;;;;;;6.15;4.70;;;;;;;17.97;71.77;99644.53;5048461;28;20119;-75
2021/09/11 04:13:25;;;;;;;7.43;5.45;;;;;;;17.93;71.64;99644.91;5048105;28;20078;-76
2021/09/11 04:15:51;;;;;;;9.75;5.65;;;;;;;17.89;71.91;99652.28;5048650;28;20505;-76
2021/09/11 04:18:17;;;;;;;8.88;5.38;;;;;;;17.87;71.63;99642.72;5048791;28;20124;-77
2021/09/11 04:20:42;;;;;;;7.13;5.50;;;;;;;17.84;72.03;99643.81;5048826;28;20472;-76
2021/09/11 04:23:08;;;;;;;10.52;5.68;;;;;;;17.80;72.38;99645.06;5047756;28;20090;-77
2021/09/11 04:25:33;;;;;;;13.65;5.05;;;;;;;17.78;72.45;99644.31;5048104;28;20036;-76
2021/09/11 04:27:58;;;;;;;11.90;5.88;;;;;;;17.73;72.83;99647.34;5048425;28;20119;-77
2021/09/11 04:30:24;;;;;;;10.05;5.65;;;;;;;17.70;73.07;99650.25;5030685;28;20102;-77
2021/09/11 04:32:50;;;;;;;10.13;6.10;;;;;;;17.68;72.94;99654.03;5045867;28;20065;-74
2021/09/11 04:35:15;;;;;;;9.23;5.50;;;;;;;17.63;73.29;99658.88;5046477;28;20024;-75
2021/09/11 04:37:40;;;;;;;11.23;7.25;;;;;;;17.58;73.48;99656.56;5046836;28;20060;-77
2021/09/11 04:40:06;;;;;;;10.50;6.18;;;;;;;17.57;73.57;99655.75;5047999;28;20045;-76
2021/09/11 04:42:32;;;;;;;14.38;6.72;;;;;;;17.56;73.13;99661.19;5046044;28;20039;-77
2021/09/11 04:44:57;;;;;;;10.82;7.07;;;;;;;17.59;72.69;99658.25;5047571;28;20041;-77
2021/09/11 04:47:22;;;;;;;8.55;6.28;;;;;;;17.56;72.71;99659.34;5046656;28;20052;-77
2021/09/11 04:49:48;;;;;;;8.07;6.03;;;;;;;17.57;72.92;99661.06;5046671;28;20041;-76
2021/09/11 04:52:13;;;;;;;9.23;5.68;;;;;;;17.59;72.53;99655.59;5047509;28;20049;-77
2021/09/11 04:54:39;;;;;;;7.70;5.60;;;;;;;17.59;72.87;99660.94;5047738;28;20071;-78
2021/09/11 04:57:04;;;;;;;10.25;6.50;;;;;;;17.59;72.55;99661.78;5050772;28;20465;-76
2021/09/11 04:59:29;;;;;;;8.88;5.53;;;;;;;17.60;72.78;99659.97;5052158;28;20119;-76
2021/09/11 05:01:56;;;;;;;8.73;6.28;;;;;;;17.61;72.63;99661.66;5050889;28;20044;-77
2021/09/11 05:04:22;;;;;;;11.77;4.90;;;;;;;17.61;72.78;99667.00;5051993;28;20033;-76
2021/09/11 05:06:47;;;;;;;8.98;5.97;;;;;;;17.59;72.44;99669.75;5051127;28;20037;-77
2021/09/11 05:09:13;;;;;;;7.85;5.35;;;;;;;17.59;72.48;99676.91;5052106;28;20041;-77
2021/09/11 05:11:38;;;;;;;13.35;4.47;;;;;;;17.61;72.19;99669.66;5050818;28;20045;-77
2021/09/11 05:14:03;;;;;;;10.65;5.82;;;;;;;17.61;72.03;99675.00;5051644;28;20037;-76
2021/09/11 05:16:29;;;;;;;11.40;4.93;;;;;;;17.60;71.90;99676.81;5050638;28;20029;-77
2021/09/11 05:18:54;;;;;;;9.35;4.82;;;;;;;17.60;71.52;99670.63;5033970;28;20033;-77
2021/09/11 05:21:20;;;;;;;7.38;5.28;;;;;;;17.62;71.27;99674.00;5070939;28;20051;-77
2021/09/11 05:23:45;;;;;;;8.07;5.55;;;;;;;17.59;71.14;99667.09;5071407;28;20053;-76
2021/09/11 05:26:10;;;;;;;7.35;4.63;;;;;;;17.62;71.34;99673.16;5071236;28;20532;-75
2021/09/11 05:28:36;;;;;;;8.32;5.35;;;;;;;17.60;71.33;99666.16;5071147;28;20073;-77
2021/09/11 05:31:01;;;;;;;9.88;4.65;;;;;;;17.64;71.18;99668.56;5070432;28;20424;-76
2021/09/11 05:33:27;;;;;;;8.13;4.95;;;;;;;17.65;71.03;99672.94;5069546;28;20037;-75
2021/09/11 05:35:52;;;;;;;7.55;5.53;;;;;;;17.66;71.05;99674.63;5071442;28;20033;-75
2021/09/11 05:38:17;;;;;;;6.47;5.22;;;;;;;17.66;70.99;99672.78;5070719;28;20028;-75
2021/09/11 05:40:43;;;;;;;8.55;6.65;;;;;;;17.66;71.14;99671.97;5070533;28;20040;-76
2021/09/11 05:43:08;;;;;;;8.95;5.65;;;;;;;17.63;71.42;99677.53;5070259;28;20436;-76
2021/09/11 05:45:34;;;;;;;10.32;5.32;;;;;;;17.60;71.47;99674.16;5070217;28;20060;-76
2021/09/11 05:47:59;;;;;;;10.07;6.18;;;;;;;17.59;71.46;99680.44;5052689;28;20036;-76
2021/09/11 05:50:25;;;;;;;10.82;6.80;;;;;;;17.58;71.78;99681.41;5069636;28;20038;-76
2021/09/11 05:52:50;;;;;;;10.43;6.97;;;;;;;17.57;71.86;99677.06;5069544;28;20137;-75
2021/09/11 05:55:16;;;;;;;8.40;6.78;;;;;;;17.58;72.37;99683.22;5070677;28;20036;-75
2021/09/11 05:57:41;;;;;;;12.70;7.13;;;;;;;17.60;72.17;99683.97;5070778;28;20458;-75
2021/09/11 06:00:08;;;;;;;19.30;7.45;;;;;;;17.64;72.03;99684.56;5070681;28;20044;-76
2021/09/11 06:02:33;;;;;;;10.35;7.22;;;;;;;17.66;72.29;99687.94;5069929;28;20029;-76
2021/09/11 06:04:58;;;;;;;11.20;7.70;;;;;;;17.69;72.28;99688.53;5070800;28;20047;-75
2021/09/11 06:07:24;;;;;;;9.82;6.97;;;;;;;17.73;72.42;99687.34;5070694;28;20052;-76
2021/09/11 06:09:49;;;;;;;12.07;8.50;;;;;;;17.76;72.17;99689.75;5068920;28;20465;-76
2021/09/11 06:12:15;;;;;;;10.32;8.13;;;;;;;17.77;72.24;99682.59;5069686;28;20070;-75
2021/09/11 06:14:40;;;;;;;9.57;6.70;;;;;;;17.80;72.26;99688.56;5070269;28;20040;-76
2021/09/11 06:17:07;;;;;;;13.20;8.60;;;;;;;17.80;71.84;99688.56;5071349;28;20032;-75
2021/09/11 06:19:33;;;;;;;9.98;7.28;;;;;;;17.81;71.80;99681.41;5071161;28;20048;-76
2021/09/11 06:21:59;;;;;;;8.27;6.55;;;;;;;17.85;71.86;99688.19;5070375;28;20409;-76
2021/09/11 06:24:24;;;;;;;12.88;6.47;;;;;;;17.85;71.71;99688.19;5070966;28;20043;-75
2021/09/11 06:26:50;;;;;;;11.88;6.43;;;;;;;17.87;71.40;99693.38;5072778;28;20064;-76
2021/09/11 06:29:15;;;;;;;8.13;6.15;;;;;;;17.88;71.47;99692.44;5075230;28;20065;-75
2021/09/11 06:31:40;;;;;;;13.10;7.22;;;;;;;17.89;71.35;99688.78;5074064;28;20079;-76
2021/09/11 06:34:06;;;;;;;9.77;5.53;;;;;;;17.94;71.50;99692.78;5073288;28;20047;-76
2021/09/11 06:36:31;;;;;;;10.88;6.15;;;;;;;17.96;71.50;99687.31;5070667;28;20036;-76
2021/09/11 06:38:56;;;;;;;7.93;5.95;;;;;;;17.98;71.40;99685.38;5054413;28;20749;-76
2021/09/11 06:41:22;;;;;;;7.18;5.90;;;;;;;18.01;71.31;99683.28;5074532;28;20075;-76
2021/09/11 06:43:47;;;;;;;8.63;5.50;;;;;;;18.06;71.13;99695.41;5059901;28;20476;-76
2021/09/11 06:46:12;;;;;;;8.23;5.90;;;;;;;18.05;70.47;99702.56;5076030;28;20506;-76
2021/09/11 06:48:37;;;;;;;10.25;5.25;;;;;;;18.08;70.57;99696.13;5075501;28;20025;-77
2021/09/11 06:51:03;;;;;;;8.93;4.80;;;;;;;18.13;70.59;99705.44;5060467;28;20041;-77
2021/09/11 06:53:28;;;;;;;10.07;4.63;;;;;;;18.21;70.51;99704.81;5076365;28;20037;-77
2021/09/11 06:55:54;;;;;;;8.20;4.25;;;;;;;18.29;69.96;99709.56;5075690;28;20152;-77
2021/09/11 06:58:19;;;;;;;6.57;4.57;;;;;;;18.37;69.74;99715.94;5078648;28;20089;-77
2021/09/11 07:00:44;;;;;;;6.60;4.22;;;;;;;18.47;69.27;99707.16;5076203;28;20056;-76
2021/09/11 07:03:10;;;;;;;6.57;4.93;;;;;;;18.52;68.60;99707.63;5074279;28;20024;-77
2021/09/11 07:05:35;;;;;;;7.45;4.22;;;;;;;18.57;68.75;99716.09;5069948;28;20085;-76
2021/09/11 07:08:00;;;;;;;9.48;4.28;;;;;;;18.61;68.55;99710.38;5070801;28;20032;-78
2021/09/11 07:10:26;;;;;;;9.52;4.20;;;;;;;18.63;67.95;99713.78;5069258;28;20036;-76
2021/09/11 07:12:51;;;;;;;6.82;4.70;;;;;;;18.63;67.66;99707.56;5068833;28;20033;-75
2021/09/11 07:15:17;;;;;;;8.25;5.30;;;;;;;18.65;67.95;99713.63;5051702;28;20137;-76
2021/09/11 07:17:42;;;;;;;7.47;4.13;;;;;;;18.74;67.38;99712.00;5068890;28;20094;-76
2021/09/11 07:20:08;;;;;;;13.50;3.90;;;;;;;18.82;66.88;99706.91;5068359;28;20058;-76
2021/09/11 07:22:34;;;;;;;7.43;3.25;;;;;;;18.92;66.63;99699.78;5068826;28;20037;-76
2021/09/11 07:24:59;;;;;;;5.40;4.03;;;;;;;18.97;66.07;99707.41;5069645;28;20037;-76
2021/09/11 07:27:25;;;;;;;5.20;3.47;;;;;;;18.94;65.92;99708.53;5069782;28;20123;-77
2021/09/11 07:29:50;;;;;;;4.65;3.25;;;;;;;19.05;65.77;99704.91;5069424;28;20039;-76
2021/09/11 07:32:15;;;;;;;9.32;3.55;;;;;;;19.14;65.76;99717.50;5068308;28;20043;-76
2021/09/11 07:34:41;;;;;;;8.95;5.22;;;;;;;19.20;64.99;99716.13;5069091;28;20032;-76
2021/09/11 07:37:06;;;;;;;5.70;3.88;;;;;;;19.26;64.89;99721.78;5068964;28;20035;-76
2021/09/11 07:39:32;;;;;;;7.10;3.40;;;;;;;19.31;64.90;99721.38;5070208;28;20036;-75
2021/09/11 07:41:57;;;;;;;7.00;3.67;;;;;;;19.40;64.66;99727.78;5069319;28;20032;-75
2021/09/11 07:44:23;;;;;;;7.65;4.03;;;;;;;19.47;63.64;99719.09;5052694;28;20060;-76
2021/09/11 07:46:48;;;;;;;7.80;3.10;;;;;;;19.57;63.50;99720.97;5069200;28;20405;-76
2021/09/11 07:49:13;;;;;;;6.90;3.25;;;;;;;19.71;63.19;99733.97;5051883;28;20059;-76
2021/09/11 07:51:39;;;;;;;5.38;2.63;;;;;;;19.82;62.20;99731.19;5069033;28;20041;-77
2021/09/11 07:54:04;;;;;;;6.05;2.88;;;;;;;19.74;61.88;99747.09;5070304;28;20079;-75
2021/09/11 07:56:30;;;;;;;5.32;3.22;;;;;;;19.71;61.72;99744.66;5071607;28;20065;-76
2021/09/11 07:58:55;;;;;;;9.30;3.42;;;;;;;19.72;61.82;99746.38;5073052;28;20115;-76
2021/09/11 08:01:20;;;;;;;4.07;2.75;;;;;;;19.70;61.90;99743.81;5072882;28;20029;-76
2021/09/11 08:03:46;;;;;;;3.15;2.15;;;;;;;19.64;62.18;99740.81;5077264;28;20104;-76
2021/09/11 08:06:11;;;;;;;5.43;3.22;;;;;;;19.55;62.54;99750.50;5076316;28;20036;-76
2021/09/11 08:08:38;;;;;;;4.15;2.55;;;;;;;19.50;62.40;99747.38;5075065;28;20055;-77
2021/09/11 08:11:06;;;;;;;10.80;3.13;;;;;;;19.51;62.77;99749.91;5075954;28;20056;-77
2021/09/11 08:13:31;;;;;;;11.98;3.40;;;;;;;19.73;62.01;99750.72;5076241;28;20052;-77
2021/09/11 08:15:57;;;;;;;3.40;2.70;;;;;;;19.81;61.91;99745.53;5079449;28;20029;-77
2021/09/11 08:18:24;;;;;;;6.53;2.50;;;;;;;19.80;61.91;99748.38;5081649;28;20039;-77
2021/09/11 08:20:50;;;;;;;3.45;2.10;;;;;;;19.68;62.48;99748.47;5077080;28;20047;-76
2021/09/11 08:23:18;;;;;;;6.15;2.70;;;;;;;19.62;62.76;99750.81;5076041;28;20090;-76
2021/09/11 08:25:45;;;;;;;5.05;2.20;;;;;;;19.56;63.01;99756.69;5065014;28;20131;-77
2021/09/11 08:28:14;;;;;;;5.97;2.45;;;;;;;19.61;62.88;99759.81;5054576;28;20037;-76
2021/09/11 08:30:39;;;;;;;5.95;2.85;;;;;;;19.68;62.55;99751.13;5056010;28;20557;-76
2021/09/11 08:33:04;;;;;;;5.75;3.63;;;;;;;19.78;62.47;99761.88;5054457;28;20111;-76
2021/09/11 08:35:30;;;;;;;4.72;2.60;;;;;;;19.94;62.29;99764.06;5056169;28;20044;-76
2021/09/11 08:37:55;;;;;;;7.20;2.97;;;;;;;20.10;61.43;99763.53;5054708;28;20033;-76
2021/09/11 08:40:21;;;;;;;6.68;3.22;;;;;;;20.18;60.77;99758.31;5055118;28;20106;-77
2021/09/11 08:42:46;;;;;;;5.82;2.63;;;;;;;20.28;60.60;99764.56;5055013;28;20043;-76
2021/09/11 08:45:14;;;;;;;3.65;2.58;;;;;;;20.52;60.43;99763.31;5052767;28;20086;-76
2021/09/11 08:47:45;;;;;;;5.63;2.75;;;;;;;20.70;59.38;99769.72;5052648;28;20067;-76
2021/09/11 08:50:13;;;;;;;4.35;3.10;;;;;;;20.79;58.92;99763.47;5051367;28;20644;-76
2021/09/11 08:52:47;;;;;;;4.43;2.90;;;;;;;20.95;58.91;99772.81;5051812;28;20406;-76
2021/09/11 08:55:14;;;;;;;6.65;2.20;;;;;;;21.12;58.98;99763.19;5049683;28;20381;-77
2021/09/11 08:57:39;;;;;;;4.22;2.20;;;;;;;21.33;58.03;99765.66;5054872;28;20037;-77
2021/09/11 09:00:08;;;;;;;7.47;3.58;;;;;;;21.54;57.40;99769.03;5052852;28;20052;-76
2021/09/11 09:02:35;;;;;;;6.63;3.13;;;;;;;22.01;55.66;99762.75;5052311;28;20029;-76
2021/09/11 09:05:02;;;;;;;5.60;2.60;;;;;;;22.62;54.17;99772.84;5055212;28;20041;-77
2021/09/11 09:07:38;;;;;;;4.60;2.53;;;;;;;23.22;52.06;99765.97;5055864;28;20029;-77
2021/09/11 09:10:22;;;;;;;3.97;2.45;;;;;;;22.74;53.31;99768.06;5067464;28;20037;-76
2021/09/11 09:12:51;;;;;;;6.43;2.22;;;;;;;22.57;54.01;99763.53;5053247;28;20039;-76
2021/09/11 09:15:19;;;;;;;7.88;2.83;;;;;;;22.38;54.23;99777.97;5053199;28;20108;-77
2021/09/11 09:17:54;;;;;;;5.90;2.88;;;;;;;22.25;53.64;99772.97;5051617;28;20041;-77
2021/09/11 09:20:21;;;;;;;5.20;2.40;;;;;;;21.97;54.79;99774.78;5053708;28;20037;-77
2021/09/11 09:23:20;;;;;;;8.40;2.90;;;;;;;21.74;55.63;99787.75;5051622;28;20064;-76
2021/09/11 09:25:45;;;;;;;3.75;2.47;;;;;;;21.53;56.21;99783.41;5051205;28;20037;-76
2021/09/11 09:28:12;;;;;;;3.80;2.60;;;;;;;23.39;51.57;99781.22;5053416;28;20035;-75
2021/09/11 09:30:45;;;;;;;4.85;2.58;;;;;;;23.29;51.33;99772.41;5056868;28;20047;-77
2021/09/11 09:33:25;;;;;;;5.47;2.47;;;;;;;24.02;49.54;99771.97;5055429;28;20037;-76
2021/09/11 09:35:51;;;;;;;7.35;2.72;;;;;;;24.31;48.26;99765.34;5059439;28;20037;-76
2021/09/11 09:38:18;;;;;;;6.72;2.50;;;;;;;24.83;46.84;99762.38;5055300;28;20033;-76
2021/09/11 09:40:49;;;;;;;6.85;3.00;;;;;;;23.86;48.45;99772.75;5054079;28;20055;-75
2021/09/11 09:43:29;;;;;;;6.05;2.63;;;;;;;23.77;48.65;99763.78;5050631;28;20029;-75
2021/09/11 09:46:05;;;;;;;5.70;2.80;;;;;;;23.31;49.90;99765.88;5053372;28;20779;-75
2021/09/11 09:48:34;;;;;;;4.80;2.30;;;;;;;23.23;50.00;99762.25;5052577;28;20037;-77
2021/09/11 09:51:08;;;;;;;5.45;2.85;;;;;;;23.47;49.61;99786.63;5052033;28;20052;-77
2021/09/11 09:53:35;;;;;;;2.80;1.85;;;;;;;23.17;49.65;99776.34;5052289;28;20092;-76
2021/09/11 09:56:01;;;;;;;3.10;2.03;;;;;;;22.70;50.87;99772.91;5052218;28;20647;-77
2021/09/11 09:58:26;;;;;;;3.13;1.90;;;;;;;22.43;51.73;99773.00;5051116;28;20037;-77
2021/09/11 10:00:51;;;;;;;3.70;2.15;;;;;;;22.11;52.94;99770.75;5050745;28;20049;-77
2021/09/11 10:03:17;;;;;;;4.60;2.33;;;;;;;21.83;54.13;99768.06;5048918;28;20484;-77
2021/09/11 10:05:48;;;;;;;4.93;2.30;;;;;;;21.60;54.65;99760.38;5049186;28;20040;-76
2021/09/11 10:08:16;;;;;;;4.78;2.13;;;;;;;22.17;53.26;99760.25;5050789;28;20387;-77
2021/09/11 10:10:45;;;;;;;3.35;2.28;;;;;;;23.90;49.01;99766.06;5049194;28;20036;-77
2021/09/11 10:13:12;;;;;;;3.70;1.98;;;;;;;23.28;50.03;99762.63;5050026;28;20802;-77
2021/09/11 10:16:00;;;;;;;4.07;2.00;;;;;;;22.77;50.92;99767.78;5050494;28;20040;-77
2021/09/11 10:18:37;;;;;;;3.38;2.03;;;;;;;22.43;52.30;99767.63;5050731;28;20189;-77
2021/09/11 10:21:38;;;;;;;4.57;2.72;;;;;;;22.15;53.14;99764.94;5049454;28;20955;-77
2021/09/11 10:24:03;;;;;;;7.35;3.00;;;;;;;22.50;51.87;99764.16;5050968;28;20560;-77
2021/09/11 10:26:47;;;;;;;6.90;2.23;;;;;;;22.41;52.56;99767.75;5051142;28;20045;-75
2021/09/11 10:29:31;;;;;;;3.88;1.90;;;;;;;22.18;53.38;99767.31;5046599;28;20777;-76
2021/09/11 10:32:28;;;;;;;3.63;2.17;;;;;;;21.93;53.83;99768.88;5031574;28;20041;-76
2021/09/11 10:35:04;;;;;;;4.07;2.50;;;;;;;21.58;55.04;99764.22;5048891;28;20119;-77
2021/09/11 10:37:47;;;;;;;4.88;2.47;;;;;;;21.46;55.54;99766.22;5050525;28;20380;-77
2021/09/11 10:40:33;;;;;;;5.05;2.60;;;;;;;21.48;55.62;99761.56;5049714;28;20048;-76
2021/09/11 10:42:59;;;;;;;3.78;2.63;;;;;;;21.47;55.69;99761.72;5049521;28;20545;-77
2021/09/11 10:46:01;;;;;;;7.18;2.40;;;;;;;21.47;55.70;99761.72;5049946;28;20127;-76
2021/09/11 10:48:45;;;;;;;3.95;2.47;;;;;;;21.36;55.70;99760.00;5057824;28;20033;-76
2021/09/11 10:51:16;;;;;;;4.60;2.53;;;;;;;21.27;56.11;99764.41;5082124;28;20464;-73
2021/09/11 10:54:08;;;;;;;3.72;2.03;;;;;;;21.40;55.92;99764.13;5067731;28;20037;-74
2021/09/11 10:56:35;;;;;;;3.42;2.13;;;;;;;21.59;55.50;99758.72;5070557;28;20052;-73
2021/09/11 10:59:19;;;;;;;5.10;3.33;;;;;;;21.56;54.99;99752.78;5070563;28;20036;-73
2021/09/11 11:01:59;;;;;;;3.22;1.98;;;;;;;21.56;55.68;99753.66;5050580;28;20398;-74
2021/09/11 11:04:31;;;;;;;3.40;2.15;;;;;;;21.45;55.95;99759.19;5038597;28;20112;-74
2021/09/11 11:07:00;;;;;;;5.10;1.95;;;;;;;21.46;56.08;99763.53;5043370;28;20398;-74
2021/09/11 11:09:26;;;;;;;2.90;2.17;;;;;;;21.48;56.04;99763.41;5049392;28;20520;-74
2021/09/11 11:11:53;;;;;;;6.20;2.40;;;;;;;21.46;56.09;99765.38;5048461;28;20136;-75
2021/09/11 11:14:19;;;;;;;5.53;2.60;;;;;;;21.43;56.06;99770.03;5049314;28;20405;-74
2021/09/11 11:16:53;;;;;;;2.95;2.33;;;;;;;21.43;56.09;99766.50;5048854;28;20115;-74
2021/09/11 11:19:20;;;;;;;5.82;2.55;;;;;;;21.36;55.46;99762.69;5048845;28;20055;-73
2021/09/11 11:22:05;;;;;;;4.32;1.98;;;;;;;21.36;55.50;99766.25;5048344;28;20036;-74
2021/09/11 11:24:36;;;;;;;4.65;2.10;;;;;;;21.34;55.29;99761.97;5049101;28;20083;-75
2021/09/11 11:27:06;;;;;;;4.03;2.00;;;;;;;21.37;56.21;99767.91;5048928;28;20112;-74
2021/09/11 11:29:32;;;;;;;3.42;2.17;;;;;;;21.40;56.15;99766.81;5052625;28;20029;-74
2021/09/11 11:32:00;;;;;;;4.45;2.40;;;;;;;21.40;55.38;99770.34;5047008;28;20036;-74